sensor_id;sensor_type;location;lat;lon;timestamp;P1;durP1;ratioP1;P2;durP2;ratioP2
31716;SDS011;18301;51.076;17.046;2022-10-17T00:02:34;33.63;;;21.88;;
31716;SDS011;18301;51.076;17.046;2022-10-17T00:07:36;34.70;;;21.60;;
31716;SDS011;18301;51.076;17.046;2022-10-17T00:12:38;32.25;;;21.33;;
31716;SDS011;18301;51.076;17.046;2022-10-17T00:17:39;34.97;;;23.83;;
31716;SDS011;18301;51.076;17.046;2022-10-17T00:22:42;38.65;;;24.50;;
31716;SDS011;18301;51.076;17.046;2022-10-17T00:27:44;36.75;;;23.60;;
31716;SDS011;18301;51.076;17.046;2022-10-17T00:32:45;38.13;;;24.02;;
31716;SDS011;18301;51.076;17.046;2022-10-17T00:37:47;36.05;;;23.77;;
31716;SDS011;18301;51.076;17.046;2022-10-17T00:42:49;38.83;;;24.55;;
31716;SDS011;18301;51.076;17.046;2022-10-17T00:48:03;40.58;;;25.23;;
31716;SDS011;18301;51.076;17.046;2022-10-17T00:53:08;37.25;;;24.88;;
31716;SDS011;18301;51.076;17.046;2022-10-17T00:58:11;37.20;;;25.27;;
31716;SDS011;18301;51.076;17.046;2022-10-17T01:03:12;36.83;;;23.35;;
31716;SDS011;18301;51.076;17.046;2022-10-17T01:08:14;35.05;;;22.80;;
31716;SDS011;18301;51.076;17.046;2022-10-17T01:13:29;39.78;;;24.42;;
31716;SDS011;18301;51.076;17.046;2022-10-17T01:18:52;37.13;;;23.55;;
31716;SDS011;18301;51.076;17.046;2022-10-17T01:29:46;37.08;;;24.52;;
31716;SDS011;18301;51.076;17.046;2022-10-17T01:40:36;36.70;;;22.05;;
31716;SDS011;18301;51.076;17.046;2022-10-17T01:45:48;33.72;;;22.00;;
31716;SDS011;18301;51.076;17.046;2022-10-17T01:51:00;38.20;;;23.38;;
31716;SDS011;18301;51.076;17.046;2022-10-17T01:56:08;39.90;;;25.17;;
31716;SDS011;18301;51.076;17.046;2022-10-17T02:01:13;40.22;;;25.77;;
31716;SDS011;18301;51.076;17.046;2022-10-17T02:06:17;42.45;;;26.77;;
31716;SDS011;18301;51.076;17.046;2022-10-17T02:11:22;39.50;;;24.98;;
31716;SDS011;18301;51.076;17.046;2022-10-17T02:21:52;34.83;;;22.70;;
31716;SDS011;18301;51.076;17.046;2022-10-17T02:32:49;35.45;;;20.38;;
31716;SDS011;18301;51.076;17.046;2022-10-17T02:37:55;37.65;;;22.40;;
31716;SDS011;18301;51.076;17.046;2022-10-17T02:42:58;32.35;;;21.38;;
31716;SDS011;18301;51.076;17.046;2022-10-17T02:48:04;34.90;;;21.25;;
31716;SDS011;18301;51.076;17.046;2022-10-17T02:53:18;37.92;;;21.10;;
31716;SDS011;18301;51.076;17.046;2022-10-17T02:58:29;35.72;;;20.73;;
31716;SDS011;18301;51.076;17.046;2022-10-17T03:03:33;34.58;;;21.02;;
31716;SDS011;18301;51.076;17.046;2022-10-17T03:08:34;36.47;;;21.10;;
31716;SDS011;18301;51.076;17.046;2022-10-17T03:13:36;31.83;;;20.40;;
31716;SDS011;18301;51.076;17.046;2022-10-17T03:18:40;32.25;;;20.40;;
31716;SDS011;18301;51.076;17.046;2022-10-17T03:23:46;30.55;;;19.55;;
31716;SDS011;18301;51.076;17.046;2022-10-17T03:28:48;33.20;;;20.40;;
31716;SDS011;18301;51.076;17.046;2022-10-17T03:33:54;34.80;;;20.60;;
31716;SDS011;18301;51.076;17.046;2022-10-17T03:38:55;34.60;;;20.77;;
31716;SDS011;18301;51.076;17.046;2022-10-17T03:43:57;35.17;;;21.48;;
31716;SDS011;18301;51.076;17.046;2022-10-17T03:48:58;32.05;;;20.58;;
31716;SDS011;18301;51.076;17.046;2022-10-17T03:54:00;35.97;;;22.15;;
31716;SDS011;18301;51.076;17.046;2022-10-17T03:59:02;31.90;;;20.75;;
31716;SDS011;18301;51.076;17.046;2022-10-17T04:04:03;33.70;;;21.23;;
31716;SDS011;18301;51.076;17.046;2022-10-17T04:09:05;33.00;;;20.50;;
31716;SDS011;18301;51.076;17.046;2022-10-17T04:14:08;31.38;;;20.95;;
31716;SDS011;18301;51.076;17.046;2022-10-17T04:19:10;38.25;;;21.45;;
31716;SDS011;18301;51.076;17.046;2022-10-17T04:24:13;34.55;;;21.05;;
31716;SDS011;18301;51.076;17.046;2022-10-17T04:29:15;31.83;;;20.65;;
31716;SDS011;18301;51.076;17.046;2022-10-17T04:34:22;38.13;;;22.52;;
31716;SDS011;18301;51.076;17.046;2022-10-17T04:39:24;33.40;;;21.05;;
31716;SDS011;18301;51.076;17.046;2022-10-17T04:44:25;33.88;;;21.20;;
31716;SDS011;18301;51.076;17.046;2022-10-17T04:49:30;39.03;;;22.33;;
31716;SDS011;18301;51.076;17.046;2022-10-17T04:54:32;33.13;;;21.40;;
31716;SDS011;18301;51.076;17.046;2022-10-17T04:59:33;34.30;;;21.55;;
31716;SDS011;18301;51.076;17.046;2022-10-17T05:04:35;36.53;;;21.58;;
31716;SDS011;18301;51.076;17.046;2022-10-17T05:09:36;34.53;;;21.55;;
31716;SDS011;18301;51.076;17.046;2022-10-17T05:14:38;36.20;;;21.58;;
31716;SDS011;18301;51.076;17.046;2022-10-17T05:19:39;37.78;;;22.08;;
31716;SDS011;18301;51.076;17.046;2022-10-17T05:24:40;36.17;;;22.63;;
31716;SDS011;18301;51.076;17.046;2022-10-17T05:29:42;36.85;;;21.38;;
31716;SDS011;18301;51.076;17.046;2022-10-17T05:34:43;34.92;;;20.98;;
31716;SDS011;18301;51.076;17.046;2022-10-17T05:39:45;37.03;;;21.40;;
31716;SDS011;18301;51.076;17.046;2022-10-17T05:44:51;36.05;;;22.20;;
31716;SDS011;18301;51.076;17.046;2022-10-17T05:49:53;35.95;;;20.50;;
31716;SDS011;18301;51.076;17.046;2022-10-17T05:54:54;36.70;;;23.15;;
31716;SDS011;18301;51.076;17.046;2022-10-17T05:59:56;35.65;;;22.05;;
31716;SDS011;18301;51.076;17.046;2022-10-17T06:04:57;37.30;;;21.35;;
31716;SDS011;18301;51.076;17.046;2022-10-17T06:09:59;37.83;;;22.38;;
31716;SDS011;18301;51.076;17.046;2022-10-17T06:15:00;33.58;;;19.75;;
31716;SDS011;18301;51.076;17.046;2022-10-17T06:20:02;33.50;;;21.80;;
31716;SDS011;18301;51.076;17.046;2022-10-17T06:25:04;35.50;;;20.85;;
31716;SDS011;18301;51.076;17.046;2022-10-17T06:30:06;37.53;;;22.50;;
31716;SDS011;18301;51.076;17.046;2022-10-17T06:35:08;38.83;;;22.45;;
31716;SDS011;18301;51.076;17.046;2022-10-17T06:40:09;37.28;;;21.63;;
31716;SDS011;18301;51.076;17.046;2022-10-17T06:45:12;32.83;;;19.08;;
31716;SDS011;18301;51.076;17.046;2022-10-17T06:50:14;37.22;;;22.23;;
31716;SDS011;18301;51.076;17.046;2022-10-17T06:55:15;36.95;;;21.58;;
31716;SDS011;18301;51.076;17.046;2022-10-17T07:00:23;33.25;;;21.15;;
31716;SDS011;18301;51.076;17.046;2022-10-17T07:05:26;33.67;;;21.30;;
31716;SDS011;18301;51.076;17.046;2022-10-17T07:10:28;35.78;;;22.48;;
31716;SDS011;18301;51.076;17.046;2022-10-17T07:15:29;33.15;;;20.80;;
31716;SDS011;18301;51.076;17.046;2022-10-17T07:20:32;32.65;;;20.70;;
31716;SDS011;18301;51.076;17.046;2022-10-17T07:25:35;33.03;;;20.20;;
31716;SDS011;18301;51.076;17.046;2022-10-17T07:30:40;30.15;;;18.98;;
31716;SDS011;18301;51.076;17.046;2022-10-17T07:35:42;29.92;;;19.40;;
31716;SDS011;18301;51.076;17.046;2022-10-17T07:40:44;32.70;;;19.23;;
31716;SDS011;18301;51.076;17.046;2022-10-17T07:45:45;31.20;;;19.73;;
31716;SDS011;18301;51.076;17.046;2022-10-17T07:50:47;28.17;;;18.00;;
31716;SDS011;18301;51.076;17.046;2022-10-17T07:55:48;31.05;;;19.65;;
31716;SDS011;18301;51.076;17.046;2022-10-17T08:00:51;25.52;;;16.17;;
31716;SDS011;18301;51.076;17.046;2022-10-17T08:05:55;32.20;;;19.60;;
31716;SDS011;18301;51.076;17.046;2022-10-17T08:11:02;26.60;;;18.42;;
31716;SDS011;18301;51.076;17.046;2022-10-17T08:16:07;29.65;;;18.58;;
31716;SDS011;18301;51.076;17.046;2022-10-17T08:21:11;27.17;;;17.08;;
31716;SDS011;18301;51.076;17.046;2022-10-17T08:26:13;27.67;;;16.67;;
31716;SDS011;18301;51.076;17.046;2022-10-17T08:31:17;25.05;;;16.70;;
31716;SDS011;18301;51.076;17.046;2022-10-17T08:36:20;28.98;;;18.30;;
31716;SDS011;18301;51.076;17.046;2022-10-17T08:46:45;24.70;;;16.52;;
31716;SDS011;18301;51.076;17.046;2022-10-17T08:51:54;23.15;;;13.20;;
31716;SDS011;18301;51.076;17.046;2022-10-17T08:57:02;23.27;;;15.48;;
31716;SDS011;18301;51.076;17.046;2022-10-17T09:07:48;23.80;;;15.32;;
31716;SDS011;18301;51.076;17.046;2022-10-17T09:18:31;22.75;;;15.95;;
31716;SDS011;18301;51.076;17.046;2022-10-17T09:23:45;27.02;;;16.65;;
31716;SDS011;18301;51.076;17.046;2022-10-17T09:29:22;20.25;;;12.05;;
31716;SDS011;18301;51.076;17.046;2022-10-17T09:34:30;21.13;;;14.20;;
31716;SDS011;18301;51.076;17.046;2022-10-17T09:39:33;23.85;;;14.55;;
31716;SDS011;18301;51.076;17.046;2022-10-17T09:50:08;22.85;;;13.70;;
31716;SDS011;18301;51.076;17.046;2022-10-17T09:55:42;20.00;;;12.55;;
31716;SDS011;18301;51.076;17.046;2022-10-17T10:00:50;18.92;;;12.52;;
31716;SDS011;18301;51.076;17.046;2022-10-17T10:06:06;19.30;;;12.27;;
31716;SDS011;18301;51.076;17.046;2022-10-17T10:11:14;25.98;;;14.50;;
31716;SDS011;18301;51.076;17.046;2022-10-17T10:16:22;19.38;;;12.65;;
31716;SDS011;18301;51.076;17.046;2022-10-17T10:21:31;18.45;;;13.23;;
31716;SDS011;18301;51.076;17.046;2022-10-17T10:26:42;20.10;;;12.02;;
31716;SDS011;18301;51.076;17.046;2022-10-17T10:31:46;23.73;;;13.57;;
31716;SDS011;18301;51.076;17.046;2022-10-17T10:42:03;16.48;;;10.80;;
31716;SDS011;18301;51.076;17.046;2022-10-17T10:47:14;16.88;;;10.77;;
31716;SDS011;18301;51.076;17.046;2022-10-17T10:52:24;16.50;;;11.73;;
31716;SDS011;18301;51.076;17.046;2022-10-17T10:57:35;16.92;;;11.27;;
31716;SDS011;18301;51.076;17.046;2022-10-17T11:02:41;16.35;;;12.05;;
31716;SDS011;18301;51.076;17.046;2022-10-17T11:08:04;17.77;;;11.20;;
31716;SDS011;18301;51.076;17.046;2022-10-17T11:13:31;18.35;;;11.15;;
31716;SDS011;18301;51.076;17.046;2022-10-17T11:18:39;15.13;;;10.95;;
31716;SDS011;18301;51.076;17.046;2022-10-17T11:23:46;15.63;;;11.05;;
31716;SDS011;18301;51.076;17.046;2022-10-17T11:28:52;16.50;;;11.55;;
31716;SDS011;18301;51.076;17.046;2022-10-17T11:39:01;15.50;;;10.50;;
31716;SDS011;18301;51.076;17.046;2022-10-17T11:44:17;12.35;;;9.73;;
31716;SDS011;18301;51.076;17.046;2022-10-17T11:49:29;14.63;;;10.63;;
31716;SDS011;18301;51.076;17.046;2022-10-17T11:54:42;13.50;;;10.05;;
31716;SDS011;18301;51.076;17.046;2022-10-17T12:04:58;13.95;;;9.55;;
31716;SDS011;18301;51.076;17.046;2022-10-17T12:15:37;17.35;;;10.88;;
31716;SDS011;18301;51.076;17.046;2022-10-17T12:20:39;14.32;;;10.15;;
31716;SDS011;18301;51.076;17.046;2022-10-17T12:25:47;15.25;;;10.68;;
31716;SDS011;18301;51.076;17.046;2022-10-17T12:30:54;13.32;;;9.00;;
31716;SDS011;18301;51.076;17.046;2022-10-17T12:46:42;15.88;;;9.57;;
31716;SDS011;18301;51.076;17.046;2022-10-17T12:57:20;14.18;;;9.88;;
31716;SDS011;18301;51.076;17.046;2022-10-17T13:02:40;14.18;;;9.95;;
31716;SDS011;18301;51.076;17.046;2022-10-17T13:07:43;17.08;;;9.43;;
31716;SDS011;18301;51.076;17.046;2022-10-17T13:12:48;15.88;;;11.05;;
31716;SDS011;18301;51.076;17.046;2022-10-17T13:17:54;14.32;;;10.30;;
31716;SDS011;18301;51.076;17.046;2022-10-17T13:23:00;14.10;;;10.32;;
31716;SDS011;18301;51.076;17.046;2022-10-17T13:28:03;17.95;;;10.93;;
31716;SDS011;18301;51.076;17.046;2022-10-17T13:33:17;15.85;;;9.93;;
31716;SDS011;18301;51.076;17.046;2022-10-17T13:38:29;13.00;;;8.52;;
31716;SDS011;18301;51.076;17.046;2022-10-17T13:43:36;17.00;;;10.40;;
31716;SDS011;18301;51.076;17.046;2022-10-17T13:48:39;21.83;;;13.07;;
31716;SDS011;18301;51.076;17.046;2022-10-17T13:53:40;16.30;;;10.73;;
31716;SDS011;18301;51.076;17.046;2022-10-17T13:58:45;15.68;;;10.05;;
31716;SDS011;18301;51.076;17.046;2022-10-17T14:03:51;16.08;;;9.02;;
31716;SDS011;18301;51.076;17.046;2022-10-17T14:09:23;13.10;;;8.32;;
31716;SDS011;18301;51.076;17.046;2022-10-17T14:14:28;15.75;;;8.25;;
31716;SDS011;18301;51.076;17.046;2022-10-17T14:19:49;14.70;;;7.57;;
31716;SDS011;18301;51.076;17.046;2022-10-17T14:30:38;13.52;;;8.00;;
31716;SDS011;18301;51.076;17.046;2022-10-17T14:35:59;13.30;;;8.10;;
31716;SDS011;18301;51.076;17.046;2022-10-17T14:41:04;11.65;;;7.53;;
31716;SDS011;18301;51.076;17.046;2022-10-17T14:46:28;12.68;;;7.50;;
31716;SDS011;18301;51.076;17.046;2022-10-17T14:51:31;12.73;;;7.45;;
31716;SDS011;18301;51.076;17.046;2022-10-17T14:56:53;13.25;;;8.82;;
31716;SDS011;18301;51.076;17.046;2022-10-17T15:01:55;28.35;;;16.55;;
31716;SDS011;18301;51.076;17.046;2022-10-17T15:06:57;44.38;;;21.73;;
31716;SDS011;18301;51.076;17.046;2022-10-17T15:11:59;35.90;;;18.50;;
31716;SDS011;18301;51.076;17.046;2022-10-17T15:17:04;37.08;;;17.35;;
31716;SDS011;18301;51.076;17.046;2022-10-17T15:22:12;25.00;;;13.10;;
31716;SDS011;18301;51.076;17.046;2022-10-17T15:27:20;19.10;;;10.80;;
31716;SDS011;18301;51.076;17.046;2022-10-17T15:32:23;15.82;;;8.70;;
31716;SDS011;18301;51.076;17.046;2022-10-17T15:37:24;13.57;;;8.20;;
31716;SDS011;18301;51.076;17.046;2022-10-17T15:42:26;15.20;;;8.73;;
31716;SDS011;18301;51.076;17.046;2022-10-17T15:47:30;19.02;;;9.60;;
31716;SDS011;18301;51.076;17.046;2022-10-17T15:52:35;15.60;;;8.93;;
31716;SDS011;18301;51.076;17.046;2022-10-17T15:57:37;15.20;;;8.05;;
31716;SDS011;18301;51.076;17.046;2022-10-17T16:02:42;13.82;;;7.28;;
31716;SDS011;18301;51.076;17.046;2022-10-17T16:07:44;13.65;;;7.70;;
31716;SDS011;18301;51.076;17.046;2022-10-17T16:12:47;13.70;;;8.68;;
31716;SDS011;18301;51.076;17.046;2022-10-17T16:17:50;13.00;;;7.90;;
31716;SDS011;18301;51.076;17.046;2022-10-17T16:22:53;10.13;;;7.30;;
31716;SDS011;18301;51.076;17.046;2022-10-17T16:28:00;10.75;;;7.57;;
31716;SDS011;18301;51.076;17.046;2022-10-17T16:33:01;11.00;;;7.15;;
31716;SDS011;18301;51.076;17.046;2022-10-17T16:38:04;12.50;;;7.80;;
31716;SDS011;18301;51.076;17.046;2022-10-17T16:43:06;12.20;;;8.07;;
31716;SDS011;18301;51.076;17.046;2022-10-17T16:48:12;11.73;;;7.90;;
31716;SDS011;18301;51.076;17.046;2022-10-17T16:53:14;14.43;;;8.13;;
31716;SDS011;18301;51.076;17.046;2022-10-17T16:58:15;11.48;;;7.80;;
31716;SDS011;18301;51.076;17.046;2022-10-17T17:03:17;11.15;;;8.18;;
31716;SDS011;18301;51.076;17.046;2022-10-17T17:08:18;13.60;;;8.13;;
31716;SDS011;18301;51.076;17.046;2022-10-17T17:13:20;11.07;;;7.15;;
31716;SDS011;18301;51.076;17.046;2022-10-17T17:18:21;12.60;;;7.28;;
31716;SDS011;18301;51.076;17.046;2022-10-17T17:23:23;11.45;;;7.22;;
31716;SDS011;18301;51.076;17.046;2022-10-17T17:28:24;10.07;;;7.25;;
31716;SDS011;18301;51.076;17.046;2022-10-17T17:33:26;12.75;;;8.10;;
31716;SDS011;18301;51.076;17.046;2022-10-17T17:38:30;11.13;;;8.57;;
31716;SDS011;18301;51.076;17.046;2022-10-17T17:43:34;12.52;;;8.00;;
31716;SDS011;18301;51.076;17.046;2022-10-17T17:48:36;9.45;;;6.82;;
31716;SDS011;18301;51.076;17.046;2022-10-17T17:53:41;12.63;;;7.75;;
31716;SDS011;18301;51.076;17.046;2022-10-17T17:58:43;12.10;;;7.55;;
31716;SDS011;18301;51.076;17.046;2022-10-17T18:03:47;11.15;;;7.47;;
31716;SDS011;18301;51.076;17.046;2022-10-17T18:08:50;13.65;;;7.38;;
31716;SDS011;18301;51.076;17.046;2022-10-17T18:14:04;10.95;;;6.97;;
31716;SDS011;18301;51.076;17.046;2022-10-17T18:19:07;11.02;;;7.57;;
31716;SDS011;18301;51.076;17.046;2022-10-17T18:24:11;11.45;;;8.13;;
31716;SDS011;18301;51.076;17.046;2022-10-17T18:29:12;13.10;;;8.30;;
31716;SDS011;18301;51.076;17.046;2022-10-17T18:34:13;11.27;;;7.50;;
31716;SDS011;18301;51.076;17.046;2022-10-17T18:39:15;14.05;;;7.70;;
31716;SDS011;18301;51.076;17.046;2022-10-17T18:44:16;14.93;;;8.00;;
31716;SDS011;18301;51.076;17.046;2022-10-17T18:49:18;13.13;;;7.72;;
31716;SDS011;18301;51.076;17.046;2022-10-17T18:54:21;11.95;;;7.60;;
31716;SDS011;18301;51.076;17.046;2022-10-17T18:59:24;17.10;;;7.75;;
31716;SDS011;18301;51.076;17.046;2022-10-17T19:04:26;14.18;;;7.40;;
31716;SDS011;18301;51.076;17.046;2022-10-17T19:09:27;11.73;;;7.47;;
31716;SDS011;18301;51.076;17.046;2022-10-17T19:14:29;10.63;;;6.93;;
31716;SDS011;18301;51.076;17.046;2022-10-17T19:19:30;11.55;;;6.80;;
31716;SDS011;18301;51.076;17.046;2022-10-17T19:24:32;11.05;;;7.80;;
31716;SDS011;18301;51.076;17.046;2022-10-17T19:29:34;14.68;;;8.40;;
31716;SDS011;18301;51.076;17.046;2022-10-17T19:34:35;10.07;;;6.68;;
31716;SDS011;18301;51.076;17.046;2022-10-17T19:39:37;12.73;;;7.97;;
31716;SDS011;18301;51.076;17.046;2022-10-17T19:44:38;12.15;;;7.15;;
31716;SDS011;18301;51.076;17.046;2022-10-17T19:49:40;10.35;;;7.40;;
31716;SDS011;18301;51.076;17.046;2022-10-17T19:54:44;12.05;;;8.30;;
31716;SDS011;18301;51.076;17.046;2022-10-17T19:59:45;14.05;;;7.57;;
31716;SDS011;18301;51.076;17.046;2022-10-17T20:04:49;11.70;;;8.25;;
31716;SDS011;18301;51.076;17.046;2022-10-17T20:10:10;11.70;;;8.52;;
31716;SDS011;18301;51.076;17.046;2022-10-17T20:15:12;13.30;;;7.65;;
31716;SDS011;18301;51.076;17.046;2022-10-17T20:20:14;12.77;;;7.53;;
31716;SDS011;18301;51.076;17.046;2022-10-17T20:25:15;10.98;;;7.50;;
31716;SDS011;18301;51.076;17.046;2022-10-17T20:30:17;16.60;;;7.30;;
31716;SDS011;18301;51.076;17.046;2022-10-17T20:35:18;14.48;;;7.57;;
31716;SDS011;18301;51.076;17.046;2022-10-17T20:40:20;14.77;;;8.15;;
31716;SDS011;18301;51.076;17.046;2022-10-17T20:45:38;14.00;;;7.57;;
31716;SDS011;18301;51.076;17.046;2022-10-17T20:50:51;11.57;;;8.30;;
31716;SDS011;18301;51.076;17.046;2022-10-17T20:55:59;13.98;;;7.65;;
31716;SDS011;18301;51.076;17.046;2022-10-17T21:01:05;11.05;;;7.88;;
31716;SDS011;18301;51.076;17.046;2022-10-17T21:06:08;13.90;;;8.52;;
31716;SDS011;18301;51.076;17.046;2022-10-17T21:11:13;10.85;;;8.02;;
31716;SDS011;18301;51.076;17.046;2022-10-17T21:16:19;12.33;;;7.90;;
31716;SDS011;18301;51.076;17.046;2022-10-17T21:21:21;11.52;;;7.50;;
31716;SDS011;18301;51.076;17.046;2022-10-17T21:26:26;13.68;;;7.75;;
31716;SDS011;18301;51.076;17.046;2022-10-17T21:31:28;13.30;;;7.63;;
31716;SDS011;18301;51.076;17.046;2022-10-17T21:36:30;13.75;;;7.68;;
31716;SDS011;18301;51.076;17.046;2022-10-17T21:41:31;12.07;;;7.90;;
31716;SDS011;18301;51.076;17.046;2022-10-17T21:46:33;15.35;;;8.00;;
31716;SDS011;18301;51.076;17.046;2022-10-17T21:51:34;13.60;;;7.78;;
31716;SDS011;18301;51.076;17.046;2022-10-17T21:56:36;11.85;;;7.40;;
31716;SDS011;18301;51.076;17.046;2022-10-17T22:01:38;14.20;;;7.55;;
31716;SDS011;18301;51.076;17.046;2022-10-17T22:06:42;11.43;;;7.63;;
31716;SDS011;18301;51.076;17.046;2022-10-17T22:11:46;13.30;;;7.15;;
31716;SDS011;18301;51.076;17.046;2022-10-17T22:16:49;12.50;;;7.68;;
31716;SDS011;18301;51.076;17.046;2022-10-17T22:21:50;11.80;;;6.90;;
31716;SDS011;18301;51.076;17.046;2022-10-17T22:26:52;10.20;;;7.32;;
31716;SDS011;18301;51.076;17.046;2022-10-17T22:31:54;10.95;;;7.38;;
31716;SDS011;18301;51.076;17.046;2022-10-17T22:36:55;10.38;;;7.68;;
31716;SDS011;18301;51.076;17.046;2022-10-17T22:41:56;12.00;;;7.25;;
31716;SDS011;18301;51.076;17.046;2022-10-17T22:46:58;12.93;;;7.43;;
31716;SDS011;18301;51.076;17.046;2022-10-17T22:51:59;15.07;;;7.78;;
31716;SDS011;18301;51.076;17.046;2022-10-17T22:57:01;13.40;;;8.23;;
31716;SDS011;18301;51.076;17.046;2022-10-17T23:02:02;13.38;;;7.78;;
31716;SDS011;18301;51.076;17.046;2022-10-17T23:07:04;20.77;;;11.18;;
31716;SDS011;18301;51.076;17.046;2022-10-17T23:12:11;20.15;;;9.02;;
31716;SDS011;18301;51.076;17.046;2022-10-17T23:17:12;16.13;;;9.15;;
31716;SDS011;18301;51.076;17.046;2022-10-17T23:22:14;13.23;;;8.25;;
31716;SDS011;18301;51.076;17.046;2022-10-17T23:27:16;12.75;;;8.70;;
31716;SDS011;18301;51.076;17.046;2022-10-17T23:32:18;17.40;;;9.65;;
31716;SDS011;18301;51.076;17.046;2022-10-17T23:37:20;11.90;;;8.70;;
31716;SDS011;18301;51.076;17.046;2022-10-17T23:42:22;15.77;;;9.32;;
31716;SDS011;18301;51.076;17.046;2022-10-17T23:47:23;16.15;;;8.10;;
31716;SDS011;18301;51.076;17.046;2022-10-17T23:52:25;13.60;;;8.07;;
31716;SDS011;18301;51.076;17.046;2022-10-17T23:57:26;18.30;;;11.05;;
